createdAt,value
2019-01-12T00:00:15.063Z,19.50
2019-01-12T00:02:43.478Z,20.43
2019-01-12T00:05:11.814Z,19.87
2019-01-12T00:07:40.172Z,19.73
2019-01-12T00:10:09.144Z,19.87
2019-01-12T00:12:37.441Z,21.10
2019-01-12T00:15:07.338Z,19.77
2019-01-12T00:17:35.611Z,20.80
2019-01-12T00:20:05.952Z,19.73
2019-01-12T00:22:34.354Z,20.40
2019-01-12T00:25:02.739Z,20.67
2019-01-12T00:27:31.162Z,21.50
2019-01-12T00:29:59.458Z,20.17
2019-01-12T00:32:27.767Z,19.67
2019-01-12T00:34:56.131Z,19.83
2019-01-12T00:37:24.434Z,20.97
2019-01-12T00:39:52.762Z,20.30
2019-01-12T00:42:21.070Z,20.40
2019-01-12T00:44:49.419Z,20.23
2019-01-12T00:47:17.843Z,20.30
2019-01-12T00:49:46.121Z,20.83
2019-01-12T00:52:14.467Z,20.40
2019-01-12T00:54:42.848Z,20.93
2019-01-12T00:57:11.133Z,20.43
2019-01-12T00:59:39.506Z,20.20
2019-01-12T01:02:07.903Z,20.43
2019-01-12T01:04:36.398Z,20.20
2019-01-12T01:07:04.895Z,19.67
2019-01-12T01:09:33.191Z,19.07
2019-01-12T01:12:01.511Z,20.33
2019-01-12T01:14:29.823Z,20.67
2019-01-12T01:16:58.099Z,19.47
2019-01-12T01:19:26.402Z,20.73
2019-01-12T01:21:54.756Z,21.07
2019-01-12T01:24:23.122Z,21.60
2019-01-12T01:26:51.474Z,24.03
2019-01-12T01:29:19.873Z,23.53
2019-01-12T01:31:48.231Z,24.03
2019-01-12T01:34:16.645Z,25.57
2019-01-12T01:36:45.005Z,24.77
2019-01-12T01:39:13.380Z,24.43
2019-01-12T01:41:41.745Z,23.60
2019-01-12T01:44:10.095Z,23.40
2019-01-12T01:46:39.151Z,22.27
2019-01-12T01:49:07.496Z,23.00
2019-01-12T01:51:35.999Z,23.17
2019-01-12T01:54:04.338Z,22.67
2019-01-12T01:56:32.644Z,21.80
2019-01-12T01:59:00.996Z,22.00
2019-01-12T02:01:29.379Z,21.47
2019-01-12T02:03:57.654Z,22.33
2019-01-12T02:06:25.954Z,22.43
2019-01-12T02:08:54.242Z,21.97
2019-01-12T02:11:22.562Z,21.20
2019-01-12T02:13:50.912Z,20.57
2019-01-12T02:16:19.228Z,22.00
2019-01-12T02:18:47.600Z,20.70
2019-01-12T02:21:16.129Z,19.90
2019-01-12T02:23:44.424Z,19.90
2019-01-12T02:26:12.774Z,21.03
2019-01-12T02:28:41.067Z,19.90
2019-01-12T02:31:09.349Z,21.73
2019-01-12T02:33:37.762Z,20.67
2019-01-12T02:36:06.113Z,20.60
2019-01-12T02:38:34.416Z,21.33
2019-01-12T02:41:02.749Z,19.53
2019-01-12T02:43:31.115Z,19.00
2019-01-12T02:45:59.493Z,19.37
2019-01-12T02:48:28.019Z,19.67
2019-01-12T02:50:56.371Z,20.77
2019-01-12T02:53:24.670Z,19.17
2019-01-12T02:55:53.086Z,19.53
2019-01-12T02:58:21.479Z,18.77
2019-01-12T03:00:49.831Z,19.33
2019-01-12T03:03:18.187Z,18.17
2019-01-12T03:05:46.516Z,19.10
2019-01-12T03:08:14.841Z,18.40
2019-01-12T03:10:43.259Z,18.80
2019-01-12T03:13:11.539Z,19.17
2019-01-12T03:15:40.075Z,19.03
2019-01-12T03:18:08.443Z,19.47
2019-01-12T03:20:36.817Z,18.30
2019-01-12T03:23:05.186Z,19.43
2019-01-12T03:25:33.553Z,19.90
2019-01-12T03:28:01.935Z,19.40
2019-01-12T03:30:30.309Z,19.93
2019-01-12T03:32:58.743Z,20.37
2019-01-12T03:35:27.137Z,19.77
2019-01-12T03:37:55.483Z,20.70
2019-01-12T03:40:23.852Z,20.37
2019-01-12T03:42:52.139Z,20.10
2019-01-12T03:45:20.520Z,21.17
2019-01-12T03:47:48.931Z,21.13
2019-01-12T03:50:17.267Z,20.57
2019-01-12T03:52:45.594Z,20.77
2019-01-12T03:55:13.940Z,20.53
2019-01-12T03:57:42.282Z,20.27
2019-01-12T04:00:16.839Z,20.77
2019-01-12T04:02:45.199Z,20.90
2019-01-12T04:05:13.467Z,21.03
2019-01-12T04:07:41.767Z,20.37
2019-01-12T04:10:11.689Z,21.37
2019-01-12T04:12:40.056Z,20.17
2019-01-12T04:15:10.955Z,20.93
2019-01-12T04:17:39.340Z,19.07
2019-01-12T04:20:15.720Z,20.27
2019-01-12T04:22:44.007Z,19.83
2019-01-12T04:25:12.288Z,18.93
2019-01-12T04:27:40.594Z,20.53
2019-01-12T04:30:16.572Z,18.80
2019-01-12T04:32:44.871Z,18.83
2019-01-12T04:35:13.226Z,19.57
2019-01-12T04:37:41.595Z,20.20
2019-01-12T04:40:15.144Z,19.70
2019-01-12T04:42:43.438Z,19.50
2019-01-12T04:45:11.780Z,19.57
2019-01-12T04:47:40.095Z,19.47
2019-01-12T04:50:11.308Z,19.53
2019-01-12T04:52:39.630Z,19.83
2019-01-12T04:55:08.191Z,20.97
2019-01-12T04:57:36.478Z,19.80
2019-01-12T05:00:08.234Z,21.10
2019-01-12T05:02:36.583Z,19.67
2019-01-12T05:05:05.520Z,20.43
2019-01-12T05:07:36.653Z,20.93
2019-01-12T05:10:08.164Z,19.23
2019-01-12T05:12:36.694Z,20.73
2019-01-12T05:15:07.808Z,20.87
2019-01-12T05:17:36.093Z,21.00
2019-01-12T05:20:07.727Z,21.67
2019-01-12T05:22:36.006Z,21.33
2019-01-12T05:25:05.817Z,22.53
2019-01-12T05:27:34.103Z,22.43
2019-01-12T05:30:02.866Z,22.50
2019-01-12T05:32:31.576Z,22.37
2019-01-12T05:35:00.101Z,23.73
2019-01-12T05:37:28.642Z,23.13
2019-01-12T05:39:57.017Z,23.87
2019-01-12T05:42:25.364Z,23.13
2019-01-12T05:44:57.758Z,22.13
2019-01-12T05:47:26.140Z,22.27
2019-01-12T05:49:54.435Z,23.23
2019-01-12T05:52:23.204Z,24.03
2019-01-12T05:54:52.152Z,23.67
2019-01-12T05:57:20.689Z,23.33
2019-01-12T05:59:49.086Z,23.67
2019-01-12T06:02:17.361Z,23.70
2019-01-12T06:04:45.846Z,26.53
2019-01-12T06:07:15.781Z,26.07
2019-01-12T06:09:44.155Z,26.60
2019-01-12T06:12:12.934Z,27.03
2019-01-12T06:14:41.217Z,27.50
2019-01-12T06:17:09.582Z,26.70
2019-01-12T06:19:37.934Z,26.90
2019-01-12T06:22:06.704Z,25.20
2019-01-12T06:24:35.189Z,25.33
2019-01-12T06:27:03.574Z,25.13
2019-01-12T06:29:31.963Z,23.93
2019-01-12T06:32:00.364Z,23.50
2019-01-12T06:34:28.709Z,23.70
2019-01-12T06:36:57.021Z,24.57
2019-01-12T06:39:25.369Z,29.27
2019-01-12T06:41:53.655Z,24.27
2019-01-12T06:44:21.940Z,22.77
2019-01-12T06:46:50.234Z,24.90
2019-01-12T06:49:18.534Z,23.70
2019-01-12T06:51:46.837Z,23.30
2019-01-12T06:54:15.142Z,24.60
2019-01-12T06:56:43.442Z,24.70
2019-01-12T06:59:15.954Z,24.53
2019-01-12T07:01:45.238Z,25.50
2019-01-12T07:04:13.608Z,23.60
2019-01-12T07:06:41.958Z,24.27
2019-01-12T07:09:10.367Z,21.27
2019-01-12T07:11:38.659Z,22.43
2019-01-12T07:14:06.978Z,22.00
2019-01-12T07:16:35.359Z,19.53
2019-01-12T07:19:03.809Z,19.70
2019-01-12T07:21:32.241Z,18.57
2019-01-12T07:24:00.541Z,19.20
2019-01-12T07:26:28.901Z,19.67
2019-01-12T07:28:57.191Z,17.83
2019-01-12T07:31:25.523Z,17.03
2019-01-12T07:33:53.869Z,17.83
2019-01-12T07:36:22.244Z,17.13
2019-01-12T07:38:50.612Z,18.30
2019-01-12T07:41:18.934Z,18.23
2019-01-12T07:43:47.301Z,17.67
2019-01-12T07:46:15.664Z,16.03
2019-01-12T07:48:44.216Z,16.30
2019-01-12T07:51:12.577Z,15.83
2019-01-12T07:53:41.063Z,15.87
2019-01-12T07:56:09.349Z,15.03
2019-01-12T07:58:37.654Z,14.90
2019-01-12T08:01:06.030Z,15.43
2019-01-12T08:03:34.427Z,15.90
2019-01-12T08:06:02.748Z,15.13
2019-01-12T08:08:31.097Z,14.37
2019-01-12T08:10:59.491Z,14.60
2019-01-12T08:13:27.820Z,12.27
2019-01-12T08:15:56.288Z,12.70
2019-01-12T08:18:24.637Z,13.37
2019-01-12T08:20:52.940Z,12.93
2019-01-12T08:23:21.224Z,11.63
2019-01-12T08:25:49.670Z,11.30
2019-01-12T08:28:18.168Z,12.40
2019-01-12T08:30:49.192Z,12.50
2019-01-12T08:33:17.558Z,11.43
2019-01-12T08:35:45.918Z,11.60
2019-01-12T08:38:14.240Z,11.40
2019-01-12T08:40:42.597Z,12.03
2019-01-12T08:43:11.061Z,11.53
2019-01-12T08:45:39.376Z,10.57
2019-01-12T08:48:07.869Z,9.97
2019-01-12T08:50:36.358Z,10.33
2019-01-12T08:53:04.712Z,9.50
2019-01-12T08:55:33.184Z,9.60
2019-01-12T08:58:01.717Z,10.23
2019-01-12T09:00:30.079Z,10.73
2019-01-12T09:03:00.410Z,10.60
2019-01-12T09:05:28.447Z,10.90
2019-01-12T09:07:56.828Z,10.30
2019-01-12T09:10:25.115Z,10.77
2019-01-12T09:12:53.613Z,9.13
2019-01-12T09:15:23.609Z,9.17
2019-01-12T09:17:52.217Z,7.80
2019-01-12T09:20:20.580Z,7.87
2019-01-12T09:22:48.931Z,8.43
2019-01-12T09:25:17.227Z,7.83
2019-01-12T09:27:45.515Z,8.23
2019-01-12T09:30:16.610Z,7.87
2019-01-12T09:32:45.043Z,7.00
2019-01-12T09:35:13.733Z,7.23
2019-01-12T09:37:42.167Z,7.27
2019-01-12T09:40:13.389Z,7.47
2019-01-12T09:42:41.661Z,7.60
2019-01-12T09:45:11.977Z,6.30
2019-01-12T09:47:40.434Z,6.40
2019-01-12T09:50:12.080Z,6.67
2019-01-12T09:52:40.455Z,6.60
2019-01-12T09:55:08.748Z,5.87
2019-01-12T09:57:37.024Z,6.20
2019-01-12T10:00:14.344Z,5.57
2019-01-12T10:02:42.696Z,5.57
2019-01-12T10:05:11.090Z,6.10
2019-01-12T10:07:39.529Z,5.90
2019-01-12T10:10:11.159Z,5.87
2019-01-12T10:12:39.604Z,5.87
2019-01-12T10:15:09.333Z,6.40
2019-01-12T10:17:37.623Z,6.80
2019-01-12T10:20:14.325Z,6.43
2019-01-12T10:22:42.699Z,7.20
2019-01-12T10:25:11.051Z,8.10
2019-01-12T10:27:39.477Z,8.07
2019-01-12T10:30:11.116Z,7.57
2019-01-12T10:32:39.488Z,7.00
2019-01-12T10:35:08.411Z,7.53
2019-01-12T10:37:36.708Z,6.70
2019-01-12T10:40:13.743Z,7.10
2019-01-12T10:42:42.153Z,6.93
2019-01-12T10:45:13.137Z,8.23
2019-01-12T10:47:42.672Z,9.00
2019-01-12T10:50:20.264Z,8.37
2019-01-12T10:52:48.560Z,8.47
2019-01-12T10:55:16.843Z,8.60
2019-01-12T10:57:45.222Z,7.17
2019-01-12T11:00:22.336Z,7.03
2019-01-12T11:02:50.635Z,6.40
2019-01-12T11:05:18.981Z,6.33
2019-01-12T11:07:47.292Z,5.43
2019-01-12T11:10:15.687Z,5.43
2019-01-12T11:12:44.091Z,5.30
2019-01-12T11:15:15.487Z,5.47
2019-01-12T11:17:43.874Z,5.50
2019-01-12T11:20:12.241Z,5.17
2019-01-12T11:22:40.587Z,5.43
2019-01-12T11:25:11.411Z,5.03
2019-01-12T11:27:39.723Z,4.60
2019-01-12T11:30:11.471Z,5.53
2019-01-12T11:32:39.780Z,5.40
2019-01-12T11:35:09.409Z,5.40
2019-01-12T11:37:38.181Z,6.43
2019-01-12T11:40:17.714Z,6.00
2019-01-12T11:42:46.181Z,5.90
2019-01-12T11:45:14.454Z,6.03
2019-01-12T11:47:42.804Z,5.87
2019-01-12T11:50:15.510Z,6.30
2019-01-12T11:52:44.398Z,6.17
2019-01-12T11:55:14.138Z,6.10
2019-01-12T11:57:42.442Z,6.40
2019-01-12T12:00:19.523Z,6.73
2019-01-12T12:02:47.984Z,6.00
2019-01-12T12:05:17.274Z,6.27
2019-01-12T12:07:45.860Z,6.07
2019-01-12T12:10:15.778Z,6.07
2019-01-12T12:12:44.144Z,6.40
2019-01-12T12:15:17.778Z,5.80
2019-01-12T12:17:46.172Z,5.70
2019-01-12T12:20:19.988Z,5.73
2019-01-12T12:22:48.441Z,5.33
2019-01-12T12:25:16.824Z,6.03
2019-01-12T12:27:45.200Z,5.77
2019-01-12T12:30:16.971Z,5.70
2019-01-12T12:32:45.303Z,5.80
2019-01-12T12:35:13.674Z,5.90
2019-01-12T12:37:42.028Z,5.97
2019-01-12T12:40:13.892Z,5.63
2019-01-12T12:42:42.258Z,5.53
2019-01-12T12:45:16.644Z,5.83
2019-01-12T12:47:45.082Z,5.10
2019-01-12T12:50:15.006Z,5.30
2019-01-12T12:52:43.332Z,5.90
2019-01-12T12:55:13.220Z,5.40
2019-01-12T12:57:41.539Z,5.13
2019-01-12T13:00:13.353Z,5.33
2019-01-12T13:02:41.671Z,5.27
2019-01-12T13:05:10.602Z,5.17
2019-01-12T13:07:38.887Z,5.53
2019-01-12T13:10:13.426Z,5.13
2019-01-12T13:12:41.847Z,5.40
2019-01-12T13:15:10.767Z,5.93
2019-01-12T13:17:39.194Z,5.77
2019-01-12T13:20:10.803Z,6.10
2019-01-12T13:22:39.178Z,6.53
2019-01-12T13:25:07.874Z,5.97
2019-01-12T13:27:39.780Z,5.83
2019-01-12T13:30:09.499Z,6.23
2019-01-12T13:32:37.797Z,6.23
2019-01-12T13:35:07.214Z,6.20
2019-01-12T13:37:35.718Z,6.60
2019-01-12T13:40:07.187Z,6.47
2019-01-12T13:42:36.929Z,6.30
2019-01-12T13:45:08.656Z,6.43
2019-01-12T13:47:37.023Z,6.33
2019-01-12T13:50:11.229Z,5.93
2019-01-12T13:52:40.616Z,5.77
2019-01-12T13:55:11.587Z,6.23
2019-01-12T13:57:47.088Z,5.93
2019-01-12T14:00:13.790Z,6.87
2019-01-12T14:02:42.260Z,6.73
2019-01-12T14:05:10.611Z,6.83
2019-01-12T14:07:39.024Z,7.63
2019-01-12T14:10:13.330Z,7.63
2019-01-12T14:12:41.686Z,7.93
2019-01-12T14:15:12.672Z,8.40
2019-01-12T14:17:40.996Z,8.67
2019-01-12T14:20:12.517Z,8.33
2019-01-12T14:22:40.812Z,9.13
2019-01-12T14:25:09.094Z,8.43
2019-01-12T14:27:37.455Z,8.10
2019-01-12T14:30:15.314Z,9.10
2019-01-12T14:32:39.232Z,8.47
2019-01-12T14:35:09.962Z,7.63
2019-01-12T14:37:38.272Z,7.43
2019-01-12T14:40:09.818Z,7.30
2019-01-12T14:42:39.062Z,6.73
2019-01-12T14:45:10.942Z,6.60
2019-01-12T14:47:39.281Z,6.57
2019-01-12T14:50:10.987Z,7.83
2019-01-12T14:52:39.282Z,6.30
2019-01-12T14:55:10.279Z,6.93
2019-01-12T14:57:38.644Z,7.03
2019-01-12T15:00:11.084Z,7.07
2019-01-12T15:02:39.646Z,6.87
2019-01-12T15:05:11.321Z,7.97
2019-01-12T15:07:39.899Z,7.20
2019-01-12T15:10:11.485Z,6.73
2019-01-12T15:12:40.877Z,6.83
2019-01-12T15:15:11.795Z,6.23
2019-01-12T15:17:40.209Z,6.97
2019-01-12T15:20:20.081Z,6.53
2019-01-12T15:22:48.643Z,7.37
2019-01-12T15:25:17.151Z,6.90
2019-01-12T15:27:45.501Z,6.83
2019-01-12T15:30:25.571Z,6.77
2019-01-12T15:32:54.201Z,6.87
2019-01-12T15:35:24.646Z,7.43
2019-01-12T15:37:52.966Z,7.17
2019-01-12T15:40:22.633Z,6.53
2019-01-12T15:42:50.937Z,6.53
2019-01-12T15:45:23.860Z,6.23
2019-01-12T15:47:52.210Z,6.77
2019-01-12T15:50:23.280Z,6.00
2019-01-12T15:52:51.828Z,6.10
2019-01-12T15:55:20.176Z,6.90
2019-01-12T15:57:48.580Z,6.50
2019-01-12T16:00:22.849Z,6.30
2019-01-12T16:02:51.226Z,6.70
2019-01-12T16:05:19.504Z,7.43
2019-01-12T16:07:47.806Z,6.90
2019-01-12T16:10:16.091Z,6.37
2019-01-12T16:12:44.366Z,6.83
2019-01-12T16:15:20.764Z,6.50
2019-01-12T16:17:49.138Z,6.33
2019-01-12T16:20:26.482Z,6.93
2019-01-12T16:22:54.770Z,6.20
2019-01-12T16:25:23.074Z,6.83
2019-01-12T16:27:51.356Z,7.00
2019-01-12T16:30:20.704Z,6.47
2019-01-12T16:32:49.227Z,6.50
2019-01-12T16:35:18.490Z,8.00
2019-01-12T16:37:47.166Z,7.13
2019-01-12T16:40:18.107Z,10.23
2019-01-12T16:42:46.643Z,8.47
2019-01-12T16:45:15.024Z,7.80
2019-01-12T16:47:43.298Z,8.37
2019-01-12T16:50:11.602Z,9.50
2019-01-12T16:52:40.038Z,8.80
2019-01-12T16:55:10.883Z,7.63
2019-01-12T16:57:39.241Z,7.63
2019-01-12T17:00:15.979Z,10.30
2019-01-12T17:02:44.253Z,6.90
2019-01-12T17:05:12.545Z,8.20
2019-01-12T17:07:42.281Z,8.90
2019-01-12T17:10:16.364Z,6.37
2019-01-12T17:12:44.695Z,7.00
2019-01-12T17:15:14.914Z,7.93
2019-01-12T17:17:43.224Z,7.43
2019-01-12T17:20:19.519Z,7.10
2019-01-12T17:22:49.067Z,7.50
2019-01-12T17:25:17.493Z,6.80
2019-01-12T17:27:45.876Z,7.23
2019-01-12T17:30:23.087Z,8.43
2019-01-12T17:32:51.447Z,8.83
2019-01-12T17:35:19.730Z,6.73
2019-01-12T17:37:48.305Z,7.77
2019-01-12T17:40:17.399Z,7.50
2019-01-12T17:42:45.685Z,8.30
2019-01-12T17:45:19.307Z,7.87
2019-01-12T17:47:47.679Z,7.93
2019-01-12T17:50:18.293Z,7.47
2019-01-12T17:52:46.679Z,7.43
2019-01-12T17:55:19.721Z,7.23
2019-01-12T17:57:48.075Z,7.67
2019-01-12T18:00:20.143Z,8.30
2019-01-12T18:02:48.520Z,7.80
2019-01-12T18:05:16.815Z,7.60
2019-01-12T18:07:45.160Z,7.53
2019-01-12T18:10:14.758Z,7.63
2019-01-12T18:12:43.041Z,7.70
2019-01-12T18:15:15.355Z,6.97
2019-01-12T18:17:43.706Z,7.17
2019-01-12T18:20:14.921Z,8.10
2019-01-12T18:22:43.354Z,8.93
2019-01-12T18:25:12.634Z,6.90
2019-01-12T18:27:41.040Z,7.60
2019-01-12T18:30:24.274Z,7.07
2019-01-12T18:32:52.562Z,6.63
2019-01-12T18:35:20.836Z,6.80
2019-01-12T18:37:49.217Z,6.30
2019-01-12T18:40:21.503Z,7.27
2019-01-12T18:42:49.944Z,5.20
2019-01-12T18:45:19.895Z,5.93
2019-01-12T18:47:48.264Z,5.53
2019-01-12T18:50:21.953Z,5.10
2019-01-12T18:52:50.371Z,5.80
2019-01-12T18:55:18.730Z,5.20
2019-01-12T18:57:47.021Z,6.70
2019-01-12T19:00:20.466Z,5.47
2019-01-12T19:02:48.815Z,5.73
2019-01-12T19:05:17.124Z,4.80
2019-01-12T19:07:45.477Z,4.93
2019-01-12T19:10:14.384Z,4.60
2019-01-12T19:12:42.759Z,5.53
2019-01-12T19:15:17.242Z,4.63
2019-01-12T19:17:45.607Z,6.63
2019-01-12T19:20:13.949Z,5.03
2019-01-12T19:22:42.244Z,4.33
2019-01-12T19:25:12.434Z,4.50
2019-01-12T19:27:40.804Z,4.33
2019-01-12T19:30:17.118Z,4.30
2019-01-12T19:32:45.541Z,4.77
2019-01-12T19:35:13.819Z,3.70
2019-01-12T19:37:42.103Z,4.10
2019-01-12T19:40:13.301Z,3.80
2019-01-12T19:42:41.830Z,3.93
2019-01-12T19:45:12.381Z,4.33
2019-01-12T19:47:40.863Z,4.60
2019-01-12T19:50:17.872Z,3.90
2019-01-12T19:52:46.469Z,3.80
2019-01-12T19:55:15.103Z,3.20
2019-01-12T19:57:43.966Z,3.77
2019-01-12T20:00:14.964Z,3.90
2019-01-12T20:02:43.310Z,3.73
2019-01-12T20:05:11.606Z,3.30
2019-01-12T20:07:42.946Z,4.03
2019-01-12T20:10:13.886Z,3.50
2019-01-12T20:12:42.185Z,3.63
2019-01-12T20:15:13.730Z,3.30
2019-01-12T20:17:42.002Z,4.00
2019-01-12T20:20:12.546Z,3.90
2019-01-12T20:22:40.928Z,3.00
2019-01-12T20:25:26.848Z,3.73
2019-01-12T20:27:55.198Z,3.17
2019-01-12T20:30:29.368Z,3.00
2019-01-12T20:33:24.986Z,3.40
2019-01-12T20:36:16.413Z,3.50
2019-01-12T20:39:04.694Z,2.73
2019-01-12T20:41:48.753Z,2.67
2019-01-12T20:44:20.395Z,2.97
2019-01-12T20:47:00.208Z,3.23
2019-01-12T20:49:34.826Z,2.90
2019-01-12T20:52:26.229Z,2.80
2019-01-12T20:55:19.166Z,3.10
2019-01-12T20:57:53.546Z,3.40
2019-01-12T21:00:53.499Z,2.80
2019-01-12T21:03:27.620Z,3.17
2019-01-12T21:06:05.083Z,2.80
2019-01-12T21:08:36.786Z,3.07
2019-01-12T21:11:23.255Z,2.80
2019-01-12T21:14:03.831Z,2.80
2019-01-12T21:16:33.434Z,2.73
2019-01-12T21:19:01.797Z,2.37
2019-01-12T21:21:30.313Z,3.17
2019-01-12T21:23:58.688Z,2.50
2019-01-12T21:26:27.027Z,3.00
2019-01-12T21:28:55.454Z,2.60
2019-01-12T21:31:23.793Z,2.43
2019-01-12T21:33:52.280Z,2.77
2019-01-12T21:36:20.657Z,2.47
2019-01-12T21:38:49.107Z,2.30
2019-01-12T21:41:17.624Z,2.50
2019-01-12T21:43:45.915Z,2.30
2019-01-12T21:46:14.263Z,2.70
2019-01-12T21:48:42.703Z,2.87
2019-01-12T21:51:11.153Z,2.80
2019-01-12T21:53:39.762Z,2.83
2019-01-12T21:56:08.163Z,2.70
2019-01-12T21:58:36.622Z,2.20
2019-01-12T22:01:05.169Z,2.47
2019-01-12T22:03:33.457Z,2.40
2019-01-12T22:06:01.940Z,2.63
2019-01-12T22:08:30.354Z,2.60
2019-01-12T22:10:58.821Z,2.60
2019-01-12T22:13:27.276Z,2.77
2019-01-12T22:15:56.110Z,2.83
2019-01-12T22:18:24.649Z,2.77
2019-01-12T22:20:53.151Z,2.87
2019-01-12T22:23:21.587Z,2.80
2019-01-12T22:25:50.015Z,3.20
2019-01-12T22:28:18.358Z,3.37
2019-01-12T22:30:46.732Z,3.30
2019-01-12T22:33:15.102Z,3.10
2019-01-12T22:35:43.526Z,3.33
2019-01-12T22:38:11.890Z,2.80
2019-01-12T22:40:40.214Z,3.27
2019-01-12T22:43:08.504Z,3.53
2019-01-12T22:45:36.948Z,3.50
2019-01-12T22:48:05.348Z,3.20
2019-01-12T22:50:33.660Z,3.77
2019-01-12T22:53:01.936Z,3.23
2019-01-12T22:55:30.247Z,3.93
2019-01-12T22:57:58.596Z,3.63
2019-01-12T23:00:46.750Z,3.87
2019-01-12T23:03:15.220Z,4.00
2019-01-12T23:05:43.508Z,4.07
2019-01-12T23:08:11.783Z,4.93
2019-01-12T23:10:40.150Z,4.83
2019-01-12T23:13:08.427Z,5.53
2019-01-12T23:15:36.851Z,5.70
2019-01-12T23:18:05.276Z,6.40
2019-01-12T23:20:33.645Z,7.23
2019-01-12T23:23:02.022Z,6.97
2019-01-12T23:25:30.393Z,8.10
2019-01-12T23:27:58.745Z,7.90
2019-01-12T23:30:27.149Z,8.00
2019-01-12T23:32:55.619Z,9.43
2019-01-12T23:35:23.915Z,9.50
2019-01-12T23:37:52.193Z,9.57
2019-01-12T23:40:20.568Z,10.00
2019-01-12T23:42:48.914Z,11.57
2019-01-12T23:45:17.215Z,11.70
2019-01-12T23:47:45.567Z,13.93
2019-01-12T23:50:14.213Z,14.13
2019-01-12T23:52:42.569Z,15.50
2019-01-12T23:55:10.950Z,19.60
2019-01-12T23:57:39.305Z,23.10
